Moorefield, NE (69039)

5:20 AM CDT on September 30, 2014 (GMT -0500)
Mallard Bay | Change Station
CLOSE
Current Station
Personal Weather Station
Location: Johnson Lake, NE
Elevation: 2623 ft
Nearby Weather Stations

Elev 2623 ft 40.68 °N, 99.86 °W | Updated 4 seconds ago

Partly Cloudy
Partly Cloudy
61.5 °F
Feels Like 61.5 °F
N
11.9
Wind Variable Wind from SSW
Gusts 12.7 mph

Today
High -- | Low -- °F
--% Chance of Precip.
Yesterday
High -- | Low -- °F
Precip. -- in
7:36 AM 7:24 PM
Waxing Crescent, 35% visible
Pressure 29.75 in
Visibility 10.0 miles
Clouds Clear
Dew Point 57 °F
Humidity 85%
Rainfall 0.09 in
Snow Depth Not available.
UV 0 out of 12
Pollen 5.00 out of 12
Air Quality Not available.
Flu Activity Not available.
METAR KMCK 300953Z AUTO 24010KT 10SM CLR 13/10 A2981 RMK AO1 SLP074 T01280100

More Conditions Fewer Conditions

Pressure 29.75 in
Visibility 10.0 miles
Clouds Clear
Dew Point 57 °F
Humidity 85%
Rainfall 0.09 in
Snow Depth Not available.
UV 0 out of 12
Pollen 5.00 out of 12
Air Quality Not available.
Flu Activity Not available.
METAR KMCK 300953Z AUTO 24010KT 10SM CLR 13/10 A2981 RMK AO1 SLP074 T01280100

More Conditions Fewer Conditions

10-Day Weather Forecast

Almanac

Astronomy

Sep. 30, 2014 Rise Set
Actual Time 7:36 AM CDT 7:24 PM CDT
Civil Twilight 7:09 AM CDT 7:52 PM CDT
Nautical Twilight 6:37 AM CDT 8:23 PM CDT
Astronomical Twilight 6:05 AM CDT 8:55 PM CDT
Moon 1:47 PM CDT 11:55 PM CDT
Length of Visible Light 12h 42m
Length of Day
11h 48m
Tomorrow will be 2m 39s shorter.
Waxing Crescent, 35% of the Moon is Illuminated
Today
Waxing Crescent
Oct 1
First Quarter
Oct 8
Full
Oct 15
Last Quarter
Oct 23
New

Today's Extremes

State Highs State Lows

Community

WunderPhotos

Upload Photos

1,757,610 photos uploaded!

WunderBlogs® & News

Nearby

Snow Depth

Station Depth Elevation
No new snow has been reported.

Earthquake Activity

City Distance Mag. Time & Date
No recent earthquake activity has been reported nearby.
Minimum magnitude displayed is 2.5.

Coastal Water Temperatures

Place Temperature
No Stations Reporting

Nearby Weather Stations